Aviation Digital Data Service (ADDS)

Output produced by METARs form (0745 UTC 01 August 2014)
found at http://aviationweather.gov/adds/metars/
 
KMSS 010523Z 0106/0206 20003KT P6SM SKC 
     FM011500 23009KT P6SM FEW060 
     FM020000 21003KT P6SM SCT060